Time;durP1;ratioP1;P1;durP2;ratioP2;P2;SDS_P1;SDS_P2;PMS_P1;PMS_P2;Temp;Humidity;BMP_temperature;BMP_pressure;BME280_temperature;BME280_humidity;BME280_pressure;Samples;Min_cycle;Max_cycle;Signal;HPM_P1;HPM_P2
2022/01/15 00:00:59;;;;;;;24.50;18.80;;;;;;;;;;5127574;27;24965;-58
2022/01/15 00:03:24;;;;;;;25.70;19.50;;;;;;;;;;5129456;27;24417;-57
2022/01/15 00:05:49;;;;;;;26.23;19.45;;;;;;;;;;5124400;27;24490;-59
2022/01/15 00:08:14;;;;;;;24.90;18.80;;;;;;;;;;5129640;27;24448;-58
2022/01/15 00:10:39;;;;;;;26.20;20.20;;;;;;;;;;5128984;27;24985;-58
2022/01/15 00:13:10;;;;;;;22.80;18.30;;;;;;;;;;5129598;27;24537;-57
2022/01/15 00:15:40;;;;;;;22.92;17.60;;;;;;;;;;5126946;27;24505;-57
2022/01/15 00:18:11;;;;;;;23.90;18.50;;;;;;;;;;5108843;27;24596;-57
2022/01/15 00:20:36;;;;;;;25.15;19.00;;;;;;;;;;5126107;27;24978;-57
2022/01/15 00:23:02;;;;;;;23.73;18.47;;;;;;;;;;5126016;27;24425;-57
2022/01/15 00:25:28;;;;;;;26.20;19.95;;;;;;;;;;5129312;27;24409;-57
2022/01/15 00:27:54;;;;;;;24.20;18.75;;;;;;;;;;5129258;27;24469;-58
2022/01/15 00:30:20;;;;;;;25.30;19.58;;;;;;;;;;5128578;27;24413;-57
2022/01/15 00:32:45;;;;;;;24.20;18.48;;;;;;;;;;5129258;27;24436;-58
2022/01/15 00:35:13;;;;;;;22.10;18.07;;;;;;;;;;5128954;27;24504;-58
2022/01/15 00:37:38;;;;;;;23.13;17.95;;;;;;;;;;5126470;27;25000;-58
2022/01/15 00:40:05;;;;;;;24.80;18.80;;;;;;;;;;5128458;27;24498;-57
2022/01/15 00:42:32;;;;;;;25.27;19.20;;;;;;;;;;5110790;27;24550;-58
2022/01/15 00:45:00;;;;;;;24.15;19.17;;;;;;;;;;5128442;27;25062;-57
2022/01/15 00:47:30;;;;;;;22.92;17.55;;;;;;;;;;5128550;27;24497;-57
2022/01/15 00:49:56;;;;;;;23.77;18.65;;;;;;;;;;5128491;27;24467;-57
2022/01/15 00:52:21;;;;;;;26.53;19.33;;;;;;;;;;5124926;27;25003;-57
2022/01/15 00:54:46;;;;;;;24.50;19.27;;;;;;;;;;5113391;27;24513;-57
2022/01/15 00:57:11;;;;;;;25.45;18.77;;;;;;;;;;5120361;27;24478;-58
2022/01/15 00:59:36;;;;;;;23.13;18.10;;;;;;;;;;5128575;27;24756;-57
2022/01/15 01:02:01;;;;;;;22.60;17.92;;;;;;;;;;5128925;27;24391;-58
2022/01/15 01:04:26;;;;;;;21.40;18.57;;;;;;;;;;5128935;27;24466;-59
2022/01/15 01:06:52;;;;;;;25.50;18.70;;;;;;;;;;5127046;27;24938;-57
2022/01/15 01:09:17;;;;;;;23.70;18.40;;;;;;;;;;5128151;27;24484;-56
2022/01/15 01:11:46;;;;;;;24.55;19.17;;;;;;;;;;5128523;27;24931;-57
2022/01/15 01:22:53;;;;;;;24.83;18.65;;;;;;;;;;5068642;28;24561;-58
2022/01/15 01:25:12;;;;;;;26.58;19.75;;;;;;;;;;5115431;27;24482;-57
2022/01/15 01:27:45;;;;;;;25.80;19.53;;;;;;;;;;5125997;27;24413;-58
2022/01/15 01:30:25;;;;;;;23.20;18.33;;;;;;;;;;5114071;27;24425;-57
2022/01/15 01:32:56;;;;;;;23.73;18.05;;;;;;;;;;5111145;27;24504;-57
2022/01/15 01:37:58;;;;;;;21.55;18.35;;;;;;;;;;5124824;27;24441;-57
2022/01/15 01:40:31;;;;;;;23.45;18.38;;;;;;;;;;5127073;27;24410;-58
2022/01/15 01:43:06;;;;;;;23.83;17.80;;;;;;;;;;5125930;27;24640;-58
2022/01/15 01:45:32;;;;;;;25.00;18.00;;;;;;;;;;5125550;27;24401;-58
2022/01/15 01:47:57;;;;;;;26.47;19.67;;;;;;;;;;5125555;27;25005;-58
2022/01/15 01:50:24;;;;;;;22.77;17.70;;;;;;;;;;5125181;27;24432;-57
2022/01/15 01:52:51;;;;;;;23.00;17.80;;;;;;;;;;5125434;27;24965;-58
2022/01/15 01:55:17;;;;;;;22.23;17.25;;;;;;;;;;5127298;27;24424;-58
2022/01/15 01:57:43;;;;;;;20.63;16.47;;;;;;;;;;5127465;27;24439;-57
2022/01/15 02:00:09;;;;;;;24.87;18.67;;;;;;;;;;5127773;27;24977;-57
2022/01/15 02:02:35;;;;;;;22.88;17.17;;;;;;;;;;5127568;27;24417;-58
2022/01/15 02:05:01;;;;;;;19.90;15.90;;;;;;;;;;5126129;27;25241;-57
2022/01/15 02:07:26;;;;;;;21.58;16.98;;;;;;;;;;5123938;27;24519;-57
2022/01/15 02:09:52;;;;;;;24.47;18.40;;;;;;;;;;5127165;27;24504;-57
2022/01/15 02:12:17;;;;;;;21.57;17.37;;;;;;;;;;5127041;27;24453;-58
2022/01/15 02:14:42;;;;;;;24.47;17.70;;;;;;;;;;5127234;27;24477;-57
2022/01/15 02:17:07;;;;;;;23.45;17.73;;;;;;;;;;5127414;27;24435;-57
2022/01/15 02:19:33;;;;;;;22.17;17.10;;;;;;;;;;5126982;27;24823;-57
2022/01/15 02:24:42;;;;;;;21.65;17.17;;;;;;;;;;5127184;27;24412;-58
2022/01/15 02:27:07;;;;;;;21.33;16.75;;;;;;;;;;5117629;27;24974;-58
2022/01/15 02:29:32;;;;;;;23.90;18.30;;;;;;;;;;5127441;27;24447;-57
2022/01/15 02:31:57;;;;;;;20.48;15.93;;;;;;;;;;5127256;27;24685;-58
2022/01/15 02:34:22;;;;;;;21.80;17.07;;;;;;;;;;5126740;27;24503;-59
2022/01/15 02:36:48;;;;;;;22.70;18.50;;;;;;;;;;5124329;27;24509;-57
2022/01/15 02:39:13;;;;;;;21.60;16.17;;;;;;;;;;5123477;27;24815;-57
2022/01/15 02:41:38;;;;;;;21.10;16.67;;;;;;;;;;5125096;28;24457;-57
2022/01/15 02:44:05;;;;;;;21.27;15.80;;;;;;;;;;5126882;28;24421;-57
2022/01/15 02:48:57;;;;;;;19.63;15.33;;;;;;;;;;5124528;28;24508;-58
2022/01/15 02:51:24;;;;;;;20.17;15.70;;;;;;;;;;5113854;28;24414;-58
2022/01/15 02:53:55;;;;;;;18.20;14.57;;;;;;;;;;5111684;28;24502;-57
2022/01/15 02:56:24;;;;;;;19.25;14.70;;;;;;;;;;5123430;28;24435;-58
2022/01/15 02:58:49;;;;;;;18.02;14.25;;;;;;;;;;5126896;28;24935;-57
2022/01/15 03:01:14;;;;;;;21.07;14.27;;;;;;;;;;5126242;28;24431;-58
2022/01/15 03:03:39;;;;;;;16.98;12.75;;;;;;;;;;5126801;28;24440;-57
2022/01/15 03:06:08;;;;;;;22.13;15.40;;;;;;;;;;5122326;28;24424;-58
2022/01/15 03:08:33;;;;;;;17.30;13.50;;;;;;;;;;5118973;28;24510;-57
2022/01/15 03:10:59;;;;;;;17.98;13.60;;;;;;;;;;5118867;28;24500;-58
2022/01/15 03:13:24;;;;;;;18.70;14.60;;;;;;;;;;5126687;28;24409;-58
2022/01/15 03:15:49;;;;;;;18.10;13.70;;;;;;;;;;5120642;28;24478;-58
2022/01/15 03:18:14;;;;;;;15.55;12.38;;;;;;;;;;5127034;28;24409;-58
2022/01/15 03:20:39;;;;;;;17.50;13.80;;;;;;;;;;5121860;28;24409;-58
2022/01/15 03:23:04;;;;;;;18.67;12.73;;;;;;;;;;5126690;28;24408;-57
2022/01/15 03:25:29;;;;;;;19.27;12.80;;;;;;;;;;5126781;28;24424;-57
2022/01/15 03:27:55;;;;;;;17.23;13.10;;;;;;;;;;5108483;28;24474;-57
2022/01/15 03:30:20;;;;;;;15.57;11.23;;;;;;;;;;5125292;28;25184;-58
2022/01/15 03:32:45;;;;;;;16.57;12.50;;;;;;;;;;5126373;28;24413;-57
2022/01/15 03:35:11;;;;;;;17.70;11.93;;;;;;;;;;5121346;28;24456;-57
2022/01/15 03:37:37;;;;;;;15.27;11.90;;;;;;;;;;5124490;28;24442;-59
2022/01/15 03:40:02;;;;;;;18.23;12.57;;;;;;;;;;5126791;28;24420;-58
2022/01/15 03:42:27;;;;;;;19.57;12.87;;;;;;;;;;5126237;28;24420;-58
2022/01/15 03:44:52;;;;;;;16.40;12.10;;;;;;;;;;5126303;28;24424;-58
2022/01/15 03:47:18;;;;;;;15.77;11.70;;;;;;;;;;5122976;27;24417;-58
2022/01/15 03:49:43;;;;;;;16.40;11.93;;;;;;;;;;5129967;27;24417;-59
2022/01/15 03:52:09;;;;;;;16.50;12.90;;;;;;;;;;5119135;27;24507;-59
2022/01/15 03:54:35;;;;;;;16.17;11.73;;;;;;;;;;5115623;27;24459;-58
2022/01/15 03:57:01;;;;;;;15.83;11.20;;;;;;;;;;5122074;27;24478;-58
2022/01/15 03:59:26;;;;;;;14.37;10.63;;;;;;;;;;5130276;27;24772;-56
2022/01/15 04:01:51;;;;;;;14.97;10.97;;;;;;;;;;5115029;27;24406;-58
2022/01/15 04:04:17;;;;;;;14.23;11.57;;;;;;;;;;5110582;27;24779;-58
2022/01/15 04:06:42;;;;;;;15.90;11.52;;;;;;;;;;5126906;27;24505;-58
2022/01/15 04:09:08;;;;;;;15.77;11.10;;;;;;;;;;5109653;28;24428;-59
2022/01/15 04:11:34;;;;;;;15.80;11.23;;;;;;;;;;5128618;27;24420;-58
2022/01/15 04:13:59;;;;;;;15.52;10.93;;;;;;;;;;5129567;27;24444;-59
2022/01/15 04:16:24;;;;;;;16.20;10.00;;;;;;;;;;5127310;27;24839;-58
2022/01/15 04:18:50;;;;;;;16.17;10.05;;;;;;;;;;5120875;27;24420;-58
2022/01/15 04:21:15;;;;;;;15.20;8.95;;;;;;;;;;5121648;27;24516;-58
2022/01/15 04:23:40;;;;;;;12.95;9.35;;;;;;;;;;5115452;27;24412;-58
2022/01/15 04:26:05;;;;;;;13.73;9.60;;;;;;;;;;5129185;27;24425;-58
2022/01/15 04:28:32;;;;;;;17.07;9.40;;;;;;;;;;5128663;27;24468;-57
2022/01/15 04:31:04;;;;;;;15.40;9.63;;;;;;;;;;5119816;27;24489;-57
2022/01/15 04:33:29;;;;;;;12.70;8.32;;;;;;;;;;5109658;27;24451;-57
2022/01/15 04:35:55;;;;;;;13.30;8.40;;;;;;;;;;5126136;27;24962;-57
2022/01/15 04:38:20;;;;;;;10.68;8.20;;;;;;;;;;5125418;27;24444;-57
2022/01/15 04:40:47;;;;;;;13.38;8.68;;;;;;;;;;5128901;27;25150;-57
2022/01/15 04:43:12;;;;;;;14.93;9.10;;;;;;;;;;5129090;27;24401;-56
2022/01/15 04:45:37;;;;;;;13.93;8.35;;;;;;;;;;5127119;27;24850;-57
2022/01/15 04:48:02;;;;;;;13.00;8.40;;;;;;;;;;5120753;27;24408;-56
2022/01/15 04:50:27;;;;;;;11.83;7.50;;;;;;;;;;5114657;27;24810;-56
2022/01/15 04:52:53;;;;;;;14.83;7.80;;;;;;;;;;5129033;27;24417;-57
2022/01/15 04:55:18;;;;;;;9.23;7.10;;;;;;;;;;5116702;27;24967;-58
2022/01/15 04:57:43;;;;;;;13.20;8.70;;;;;;;;;;5128331;27;24423;-57
2022/01/15 05:00:18;;;;;;;14.70;8.30;;;;;;;;;;5116139;27;24496;-58
2022/01/15 05:02:43;;;;;;;11.02;7.22;;;;;;;;;;5109188;27;24401;-59
2022/01/15 05:05:08;;;;;;;11.40;7.40;;;;;;;;;;5128235;27;24412;-57
2022/01/15 05:07:34;;;;;;;12.67;7.80;;;;;;;;;;5128304;27;24428;-57
2022/01/15 05:09:59;;;;;;;12.07;7.57;;;;;;;;;;5128865;27;24416;-57
2022/01/15 05:14:49;;;;;;;11.98;7.80;;;;;;;;;;5128292;27;24413;-57
2022/01/15 05:17:15;;;;;;;12.73;7.30;;;;;;;;;;5112805;27;24421;-57
2022/01/15 05:19:40;;;;;;;16.67;8.40;;;;;;;;;;5123836;27;24686;-56
2022/01/15 05:22:05;;;;;;;12.70;7.65;;;;;;;;;;5116924;27;25294;-58
2022/01/15 05:24:31;;;;;;;12.07;7.87;;;;;;;;;;5128261;27;24448;-57
2022/01/15 05:26:56;;;;;;;12.90;7.13;;;;;;;;;;5123003;27;24421;-56
2022/01/15 05:29:22;;;;;;;12.88;8.00;;;;;;;;;;5116162;27;24421;-56
2022/01/15 05:31:47;;;;;;;14.73;8.30;;;;;;;;;;5128152;27;24413;-57
2022/01/15 05:34:12;;;;;;;13.60;8.02;;;;;;;;;;5128326;27;24417;-57
2022/01/15 05:36:39;;;;;;;17.35;8.77;;;;;;;;;;5126787;27;24440;-58
2022/01/15 05:39:04;;;;;;;13.02;9.02;;;;;;;;;;5108974;27;24425;-57
2022/01/15 05:41:29;;;;;;;16.83;9.33;;;;;;;;;;5127645;27;24493;-57
2022/01/15 05:44:00;;;;;;;17.02;9.90;;;;;;;;;;5127622;27;24521;-57
2022/01/15 05:46:25;;;;;;;16.73;8.93;;;;;;;;;;5119255;27;24420;-58
2022/01/15 05:48:50;;;;;;;13.93;8.53;;;;;;;;;;5127460;27;24443;-56
2022/01/15 05:51:16;;;;;;;14.68;9.57;;;;;;;;;;5117535;27;24410;-57
2022/01/15 05:53:41;;;;;;;15.45;9.30;;;;;;;;;;5127756;27;24393;-57
2022/01/15 05:56:06;;;;;;;12.37;8.70;;;;;;;;;;5127642;27;24444;-60
2022/01/15 05:58:32;;;;;;;13.50;8.68;;;;;;;;;;5127494;27;25054;-57
2022/01/15 06:00:57;;;;;;;13.07;8.70;;;;;;;;;;5127266;27;24420;-57
2022/01/15 06:03:22;;;;;;;16.27;8.93;;;;;;;;;;5116904;27;24810;-58
2022/01/15 06:05:47;;;;;;;14.77;8.32;;;;;;;;;;5123589;27;24857;-57
2022/01/15 06:08:12;;;;;;;12.25;7.93;;;;;;;;;;5117013;27;24413;-57
2022/01/15 06:10:38;;;;;;;18.05;8.90;;;;;;;;;;5126887;27;24490;-57
2022/01/15 06:13:03;;;;;;;17.92;9.35;;;;;;;;;;5125676;27;24985;-57
2022/01/15 06:15:28;;;;;;;12.40;8.03;;;;;;;;;;5123848;27;24961;-57
2022/01/15 06:17:54;;;;;;;10.40;7.60;;;;;;;;;;5122488;27;24594;-59
2022/01/15 06:20:19;;;;;;;15.13;8.27;;;;;;;;;;5112006;27;24479;-58
2022/01/15 06:22:44;;;;;;;15.38;8.20;;;;;;;;;;5116363;27;24455;-58
2022/01/15 06:25:09;;;;;;;14.10;8.50;;;;;;;;;;5117782;27;24509;-58
2022/01/15 06:27:34;;;;;;;14.50;9.10;;;;;;;;;;5109604;27;24422;-57
2022/01/15 06:30:00;;;;;;;13.70;8.40;;;;;;;;;;5121749;27;24467;-57
2022/01/15 06:32:27;;;;;;;12.23;8.13;;;;;;;;;;5127298;27;24412;-58
2022/01/15 06:34:52;;;;;;;11.68;7.55;;;;;;;;;;5126109;27;24423;-57
2022/01/15 06:37:18;;;;;;;12.50;7.80;;;;;;;;;;5124478;27;24449;-58
2022/01/15 06:39:44;;;;;;;12.25;8.10;;;;;;;;;;5119910;27;24827;-57
2022/01/15 06:42:09;;;;;;;13.48;8.60;;;;;;;;;;5125116;28;24408;-57
2022/01/15 06:44:34;;;;;;;13.35;8.85;;;;;;;;;;5125466;28;24474;-57
2022/01/15 06:46:59;;;;;;;12.85;8.13;;;;;;;;;;5125982;28;24409;-59
2022/01/15 06:49:25;;;;;;;13.77;8.27;;;;;;;;;;5123469;28;25027;-58
2022/01/15 06:51:50;;;;;;;13.25;8.55;;;;;;;;;;5120607;28;24412;-59
2022/01/15 06:54:15;;;;;;;14.07;8.17;;;;;;;;;;5125791;28;24446;-58
2022/01/15 06:56:40;;;;;;;13.53;8.60;;;;;;;;;;5125345;28;24410;-57
2022/01/15 06:59:06;;;;;;;14.77;8.20;;;;;;;;;;5126758;28;24417;-60
2022/01/15 07:01:31;;;;;;;14.27;8.25;;;;;;;;;;5123203;28;24499;-58
2022/01/15 07:03:57;;;;;;;15.60;8.50;;;;;;;;;;5125637;28;25180;-59
2022/01/15 07:06:22;;;;;;;13.17;8.97;;;;;;;;;;5122431;28;24500;-59
2022/01/15 07:08:47;;;;;;;17.58;9.38;;;;;;;;;;5115771;28;24421;-59
2022/01/15 07:11:13;;;;;;;15.23;8.97;;;;;;;;;;5105228;28;24410;-58
2022/01/15 07:13:38;;;;;;;13.77;8.88;;;;;;;;;;5123119;28;24775;-58
2022/01/15 07:16:03;;;;;;;13.35;8.80;;;;;;;;;;5121576;28;24440;-59
2022/01/15 07:18:34;;;;;;;15.05;9.10;;;;;;;;;;5114210;28;25013;-58
2022/01/15 07:20:59;;;;;;;16.70;9.45;;;;;;;;;;5117817;27;25005;-59
2022/01/15 07:23:28;;;;;;;14.10;8.57;;;;;;;;;;5121076;27;24421;-59
2022/01/15 07:25:53;;;;;;;13.45;9.10;;;;;;;;;;5130724;27;24500;-59
2022/01/15 07:28:19;;;;;;;16.30;9.40;;;;;;;;;;5121487;27;24918;-58
2022/01/15 07:30:45;;;;;;;16.60;9.32;;;;;;;;;;5129528;27;24405;-59
2022/01/15 07:33:13;;;;;;;12.65;9.23;;;;;;;;;;5124121;27;24416;-59
2022/01/15 07:35:39;;;;;;;15.65;9.45;;;;;;;;;;5127537;27;24878;-56
2022/01/15 07:38:04;;;;;;;15.17;9.00;;;;;;;;;;5119433;27;25041;-59
2022/01/15 07:40:29;;;;;;;13.50;8.80;;;;;;;;;;5128173;27;24441;-60
2022/01/15 07:42:55;;;;;;;15.00;9.00;;;;;;;;;;5127080;27;24604;-57
2022/01/15 07:45:20;;;;;;;12.37;9.00;;;;;;;;;;5122893;27;24799;-56
2022/01/15 07:47:45;;;;;;;13.90;9.20;;;;;;;;;;5129473;27;24778;-56
2022/01/15 07:50:23;;;;;;;12.13;9.30;;;;;;;;;;5121258;27;24421;-56
2022/01/15 07:52:48;;;;;;;13.80;9.80;;;;;;;;;;5124783;27;25269;-59
2022/01/15 07:55:14;;;;;;;16.57;10.70;;;;;;;;;;5129575;27;24417;-58
2022/01/15 07:57:43;;;;;;;19.17;10.88;;;;;;;;;;5118157;27;24425;-58
2022/01/15 08:00:09;;;;;;;16.15;9.75;;;;;;;;;;5120903;27;24487;-58
2022/01/15 08:02:34;;;;;;;16.42;10.38;;;;;;;;;;5129346;27;24820;-59
2022/01/15 08:04:59;;;;;;;17.25;10.15;;;;;;;;;;5123084;27;24817;-57
2022/01/15 08:07:24;;;;;;;14.53;9.40;;;;;;;;;;5120653;27;24428;-57
2022/01/15 08:09:49;;;;;;;17.73;10.82;;;;;;;;;;5120951;27;24411;-58
2022/01/15 08:12:15;;;;;;;17.60;10.80;;;;;;;;;;5129581;27;24523;-58
2022/01/15 08:14:41;;;;;;;18.63;11.90;;;;;;;;;;5127650;27;24419;-58
2022/01/15 08:17:06;;;;;;;20.30;12.70;;;;;;;;;;5124360;27;24425;-58
2022/01/15 08:19:31;;;;;;;17.52;10.82;;;;;;;;;;5123191;27;24702;-58
2022/01/15 08:21:57;;;;;;;16.30;10.80;;;;;;;;;;5120232;27;24962;-58
2022/01/15 08:24:22;;;;;;;14.90;10.50;;;;;;;;;;5126643;27;24412;-58
2022/01/15 08:26:47;;;;;;;17.88;11.88;;;;;;;;;;5126162;27;24497;-58
2022/01/15 08:29:12;;;;;;;18.37;11.70;;;;;;;;;;5128479;27;24463;-58
2022/01/15 08:31:37;;;;;;;17.92;11.75;;;;;;;;;;5128915;27;24466;-58
2022/01/15 08:34:02;;;;;;;17.08;10.93;;;;;;;;;;5127875;27;25027;-58
2022/01/15 08:36:28;;;;;;;17.77;10.80;;;;;;;;;;5128522;27;24433;-58
2022/01/15 08:38:53;;;;;;;19.80;11.57;;;;;;;;;;5128885;27;24962;-57
2022/01/15 08:41:18;;;;;;;18.43;10.80;;;;;;;;;;5128991;27;24795;-58
2022/01/15 08:43:43;;;;;;;17.93;10.70;;;;;;;;;;5128543;27;24454;-58
2022/01/15 08:46:09;;;;;;;16.43;9.80;;;;;;;;;;5129061;27;24821;-58
2022/01/15 08:48:34;;;;;;;14.37;9.50;;;;;;;;;;5128247;27;24853;-57
2022/01/15 08:50:59;;;;;;;14.40;8.70;;;;;;;;;;5129083;27;24876;-57
2022/01/15 08:53:25;;;;;;;18.53;10.03;;;;;;;;;;5128867;27;24727;-57
2022/01/15 08:55:50;;;;;;;13.00;8.67;;;;;;;;;;5128925;27;24405;-57
2022/01/15 08:58:15;;;;;;;13.97;9.40;;;;;;;;;;5128385;27;24977;-58
2022/01/15 09:00:40;;;;;;;14.70;8.20;;;;;;;;;;5128701;27;24390;-58
2022/01/15 09:03:09;;;;;;;13.00;7.97;;;;;;;;;;5128501;27;25033;-57
2022/01/15 09:05:35;;;;;;;11.77;7.28;;;;;;;;;;5128693;27;24396;-53
2022/01/15 09:08:00;;;;;;;15.35;8.02;;;;;;;;;;5128557;27;24498;-53
2022/01/15 09:10:26;;;;;;;17.27;8.45;;;;;;;;;;5128609;27;24409;-53
2022/01/15 09:12:51;;;;;;;23.75;14.20;;;;;;;;;;5128305;27;24489;-53
2022/01/15 09:15:16;;;;;;;16.65;8.50;;;;;;;;;;5128106;27;24934;-53
2022/01/15 09:17:42;;;;;;;13.87;6.63;;;;;;;;;;5115457;27;24433;-58
2022/01/15 09:20:07;;;;;;;13.00;6.40;;;;;;;;;;5128610;27;24427;-58
2022/01/15 09:22:32;;;;;;;14.73;6.20;;;;;;;;;;5128290;27;25169;-58
2022/01/15 09:24:58;;;;;;;13.95;6.45;;;;;;;;;;5128051;27;24412;-57
2022/01/15 09:30:13;;;;;;;13.40;5.70;;;;;;;;;;5121584;27;24409;-58
2022/01/15 09:32:43;;;;;;;14.23;5.47;;;;;;;;;;5112799;27;24514;-58
2022/01/15 09:35:09;;;;;;;15.45;6.05;;;;;;;;;;5128093;27;24890;-58
2022/01/15 09:37:34;;;;;;;16.63;5.73;;;;;;;;;;5127230;27;24955;-58
2022/01/15 09:39:59;;;;;;;16.60;6.23;;;;;;;;;;5127399;27;24425;-57
2022/01/15 09:42:25;;;;;;;13.35;6.80;;;;;;;;;;5126024;27;24404;-57
2022/01/15 09:44:51;;;;;;;15.37;5.80;;;;;;;;;;5126293;27;24416;-58
2022/01/15 09:47:16;;;;;;;12.88;5.70;;;;;;;;;;5127553;27;24566;-58
2022/01/15 09:50:05;;;;;;;12.75;5.20;;;;;;;;;;5123267;27;24520;-59
2022/01/15 09:52:32;;;;;;;13.18;5.72;;;;;;;;;;5116648;27;24441;-59
2022/01/15 09:54:57;;;;;;;15.25;5.82;;;;;;;;;;5126303;27;24477;-59
2022/01/15 09:57:22;;;;;;;15.97;5.73;;;;;;;;;;5127141;27;24425;-58
2022/01/15 09:59:47;;;;;;;13.70;5.30;;;;;;;;;;5126294;27;25136;-58
2022/01/15 10:02:13;;;;;;;13.85;5.63;;;;;;;;;;5127651;27;24500;-59
2022/01/15 10:04:38;;;;;;;13.57;4.90;;;;;;;;;;5125762;27;24417;-59
2022/01/15 10:07:13;;;;;;;13.90;5.90;;;;;;;;;;5127280;27;24593;-59
2022/01/15 10:09:39;;;;;;;18.15;7.78;;;;;;;;;;5125067;27;24954;-59
2022/01/15 10:12:04;;;;;;;15.50;6.60;;;;;;;;;;5124678;27;24570;-59
2022/01/15 10:14:33;;;;;;;11.50;5.50;;;;;;;;;;5127617;27;24429;-57
2022/01/15 10:17:00;;;;;;;10.90;5.35;;;;;;;;;;5126779;27;24433;-58
2022/01/15 10:19:32;;;;;;;12.27;6.30;;;;;;;;;;5126926;27;24468;-58
2022/01/15 10:22:23;;;;;;;14.18;4.55;;;;;;;;;;5126310;27;24413;-58
2022/01/15 10:24:50;;;;;;;13.77;4.80;;;;;;;;;;5122226;27;24440;-58
2022/01/15 10:27:20;;;;;;;11.73;4.18;;;;;;;;;;5125314;27;24428;-57
2022/01/15 10:29:49;;;;;;;8.93;3.75;;;;;;;;;;5121998;27;24597;-59
2022/01/15 10:32:14;;;;;;;8.98;3.70;;;;;;;;;;5126461;27;24415;-59
2022/01/15 10:34:41;;;;;;;10.83;3.70;;;;;;;;;;5125943;27;24421;-59
2022/01/15 10:37:20;;;;;;;8.88;3.53;;;;;;;;;;5126377;27;25007;-59
2022/01/15 10:39:54;;;;;;;9.13;4.10;;;;;;;;;;5126100;27;24457;-60
2022/01/15 10:42:23;;;;;;;9.13;3.60;;;;;;;;;;5127055;27;24397;-60
2022/01/15 10:44:48;;;;;;;10.52;3.70;;;;;;;;;;5126983;28;24915;-59
2022/01/15 10:47:16;;;;;;;8.87;3.57;;;;;;;;;;5126570;28;24424;-59
2022/01/15 10:49:41;;;;;;;12.18;4.45;;;;;;;;;;5126571;28;24401;-58
2022/01/15 10:52:27;;;;;;;9.20;3.70;;;;;;;;;;5126742;28;24763;-59
2022/01/15 10:54:52;;;;;;;10.10;3.65;;;;;;;;;;5126516;27;24417;-64
2022/01/15 10:57:19;;;;;;;15.63;4.55;;;;;;;;;;5130585;27;24435;-58
2022/01/15 11:00:03;;;;;;;15.32;4.30;;;;;;;;;;5130421;27;24977;-59
2022/01/15 11:02:28;;;;;;;13.38;4.20;;;;;;;;;;5131162;27;24393;-59
2022/01/15 11:04:53;;;;;;;11.40;3.63;;;;;;;;;;5130791;27;24392;-59
2022/01/15 11:07:19;;;;;;;9.47;3.87;;;;;;;;;;5131233;27;24993;-60
2022/01/15 11:09:46;;;;;;;15.38;4.88;;;;;;;;;;5130336;27;24413;-58
2022/01/15 11:12:11;;;;;;;10.07;4.20;;;;;;;;;;5130647;27;24405;-59
2022/01/15 11:14:37;;;;;;;15.50;5.50;;;;;;;;;;5131290;27;24401;-58
2022/01/15 11:17:02;;;;;;;13.40;4.10;;;;;;;;;;5130207;27;24912;-58
2022/01/15 11:19:29;;;;;;;11.10;3.90;;;;;;;;;;5130120;27;24950;-59
2022/01/15 11:21:55;;;;;;;8.02;3.42;;;;;;;;;;5130258;27;24462;-59
2022/01/15 11:24:20;;;;;;;11.30;3.90;;;;;;;;;;5130596;27;24393;-59
2022/01/15 11:26:47;;;;;;;11.60;4.03;;;;;;;;;;5130786;27;24437;-58
2022/01/15 11:29:13;;;;;;;9.75;3.80;;;;;;;;;;5130699;27;24377;-57
2022/01/15 11:31:39;;;;;;;11.98;4.00;;;;;;;;;;5129903;27;24412;-58
2022/01/15 11:34:05;;;;;;;11.77;4.07;;;;;;;;;;5130169;27;24508;-58
2022/01/15 11:36:34;;;;;;;11.55;3.88;;;;;;;;;;5130277;27;24428;-58
2022/01/15 11:39:01;;;;;;;16.00;4.43;;;;;;;;;;5129685;27;24779;-58
2022/01/15 11:41:27;;;;;;;9.50;3.55;;;;;;;;;;5130027;27;24388;-58
2022/01/15 11:44:02;;;;;;;7.93;3.25;;;;;;;;;;5129908;27;24512;-58
2022/01/15 11:46:38;;;;;;;10.20;4.00;;;;;;;;;;5130270;27;24413;-58
2022/01/15 11:49:22;;;;;;;14.23;4.80;;;;;;;;;;5130078;27;24429;-58
2022/01/15 11:51:47;;;;;;;13.93;4.50;;;;;;;;;;5129637;27;24389;-59
2022/01/15 11:54:12;;;;;;;9.98;3.63;;;;;;;;;;5130529;27;24385;-58
2022/01/15 11:56:39;;;;;;;9.17;3.30;;;;;;;;;;5129245;27;24405;-60
2022/01/15 11:59:22;;;;;;;7.43;3.45;;;;;;;;;;5129853;27;24911;-59
2022/01/15 12:01:47;;;;;;;7.82;3.50;;;;;;;;;;5130098;27;24488;-60
2022/01/15 12:04:31;;;;;;;8.95;3.97;;;;;;;;;;5130162;27;24767;-60
2022/01/15 12:07:02;;;;;;;12.20;4.00;;;;;;;;;;5123997;27;24425;-61
2022/01/15 12:09:30;;;;;;;6.00;3.00;;;;;;;;;;5109060;27;24469;-58
2022/01/15 12:11:55;;;;;;;6.28;3.40;;;;;;;;;;5109212;28;24414;-59
2022/01/15 12:14:39;;;;;;;7.47;3.45;;;;;;;;;;5109320;28;24393;-59
2022/01/15 12:17:21;;;;;;;8.45;2.90;;;;;;;;;;5117813;27;24440;-59
2022/01/15 12:19:46;;;;;;;6.90;2.92;;;;;;;;;;5129466;27;24423;-59
2022/01/15 12:22:30;;;;;;;7.25;2.97;;;;;;;;;;5129597;27;24389;-59
2022/01/15 12:24:56;;;;;;;6.75;2.83;;;;;;;;;;5129628;27;24895;-59
2022/01/15 12:27:25;;;;;;;16.13;6.93;;;;;;;;;;5128785;27;24428;-59
2022/01/15 12:29:57;;;;;;;19.13;10.55;;;;;;;;;;5129057;27;24507;-59
2022/01/15 12:32:29;;;;;;;38.28;20.77;;;;;;;;;;5129431;27;24393;-59
2022/01/15 12:34:55;;;;;;;27.95;17.35;;;;;;;;;;5129445;27;24412;-59
2022/01/15 12:37:20;;;;;;;32.27;17.53;;;;;;;;;;5128402;27;24886;-60
2022/01/15 12:39:45;;;;;;;18.45;10.70;;;;;;;;;;5129100;27;24808;-59
2022/01/15 12:42:12;;;;;;;10.10;4.43;;;;;;;;;;5128938;27;24736;-59
2022/01/15 12:44:45;;;;;;;12.27;5.50;;;;;;;;;;5129313;27;24393;-59
2022/01/15 12:47:10;;;;;;;13.30;7.05;;;;;;;;;;5129099;27;24430;-59
2022/01/15 12:49:40;;;;;;;10.20;5.53;;;;;;;;;;5128923;27;24492;-58
2022/01/15 12:52:13;;;;;;;15.60;7.90;;;;;;;;;;5127514;27;24424;-59
2022/01/15 12:54:38;;;;;;;15.77;9.38;;;;;;;;;;5128518;27;24401;-59
2022/01/15 12:57:03;;;;;;;22.50;12.80;;;;;;;;;;5128830;27;24428;-59
2022/01/15 12:59:28;;;;;;;14.90;8.13;;;;;;;;;;5128809;27;24775;-58
2022/01/15 13:01:53;;;;;;;9.87;6.10;;;;;;;;;;5128344;27;24409;-59
2022/01/15 13:04:19;;;;;;;8.85;4.78;;;;;;;;;;5129032;27;24463;-58
2022/01/15 13:06:49;;;;;;;8.40;4.05;;;;;;;;;;5126967;27;24381;-58
2022/01/15 13:09:15;;;;;;;7.13;3.63;;;;;;;;;;5128236;27;24409;-58
2022/01/15 13:11:48;;;;;;;10.67;3.90;;;;;;;;;;5128294;27;24550;-57
2022/01/15 13:14:13;;;;;;;8.65;3.85;;;;;;;;;;5128335;27;24409;-57
2022/01/15 13:16:38;;;;;;;10.57;4.20;;;;;;;;;;5128313;27;24945;-57
2022/01/15 13:19:04;;;;;;;6.97;3.80;;;;;;;;;;5126870;27;24408;-58
2022/01/15 13:21:33;;;;;;;7.15;4.45;;;;;;;;;;5128297;27;24480;-60
2022/01/15 13:24:07;;;;;;;7.90;4.40;;;;;;;;;;5128314;27;24482;-58
2022/01/15 13:26:34;;;;;;;8.68;3.88;;;;;;;;;;5128902;27;24738;-59
2022/01/15 13:29:00;;;;;;;6.47;3.60;;;;;;;;;;5127809;27;24717;-59
2022/01/15 13:31:29;;;;;;;14.00;4.20;;;;;;;;;;5128312;27;25002;-58
2022/01/15 13:33:54;;;;;;;7.40;4.55;;;;;;;;;;5128261;27;24904;-58
2022/01/15 13:36:19;;;;;;;10.40;4.70;;;;;;;;;;5127821;27;24467;-58
2022/01/15 13:38:48;;;;;;;7.67;3.90;;;;;;;;;;5127803;27;24420;-59
2022/01/15 13:41:18;;;;;;;9.35;4.30;;;;;;;;;;5127946;27;24477;-58
2022/01/15 13:43:45;;;;;;;9.25;3.92;;;;;;;;;;5128248;27;24409;-58
2022/01/15 13:46:12;;;;;;;7.88;3.90;;;;;;;;;;5127971;27;24815;-59
2022/01/15 13:48:37;;;;;;;9.30;4.00;;;;;;;;;;5127683;27;24389;-58
2022/01/15 13:53:57;;;;;;;8.10;3.40;;;;;;;;;;5119323;27;24494;-59
2022/01/15 13:56:26;;;;;;;8.07;4.10;;;;;;;;;;5123246;27;24424;-59
2022/01/15 13:58:56;;;;;;;10.20;4.10;;;;;;;;;;5122934;27;24443;-59
2022/01/15 14:01:25;;;;;;;7.22;3.40;;;;;;;;;;5110495;27;24495;-62
2022/01/15 14:03:51;;;;;;;9.20;3.80;;;;;;;;;;5099126;27;24622;-58
2022/01/15 14:06:16;;;;;;;10.75;4.38;;;;;;;;;;5120895;27;24978;-59
2022/01/15 14:08:41;;;;;;;8.80;4.10;;;;;;;;;;5124877;27;25019;-58
2022/01/15 14:11:14;;;;;;;7.00;4.00;;;;;;;;;;5123733;27;24421;-59
2022/01/15 14:13:39;;;;;;;10.23;4.32;;;;;;;;;;5122495;27;24439;-59
2022/01/15 14:16:23;;;;;;;7.97;4.10;;;;;;;;;;5123025;27;24494;-59
2022/01/15 14:19:01;;;;;;;8.13;4.20;;;;;;;;;;5123493;27;24433;-58
2022/01/15 14:23:58;;;;;;;10.18;3.88;;;;;;;;;;5123864;27;25067;-58
2022/01/15 14:26:24;;;;;;;8.32;3.75;;;;;;;;;;5119487;27;24433;-59
2022/01/15 14:28:51;;;;;;;7.50;3.38;;;;;;;;;;5120659;27;24425;-58
2022/01/15 14:31:18;;;;;;;7.80;4.20;;;;;;;;;;5121934;27;24413;-58
2022/01/15 14:33:50;;;;;;;10.30;4.50;;;;;;;;;;5122774;27;24446;-58
2022/01/15 14:36:17;;;;;;;10.20;4.30;;;;;;;;;;5119858;27;24519;-60
2022/01/15 14:38:42;;;;;;;8.52;4.28;;;;;;;;;;5116442;27;24484;-59
2022/01/15 14:41:09;;;;;;;8.20;4.28;;;;;;;;;;5117408;27;25025;-59
2022/01/15 14:43:34;;;;;;;11.55;4.53;;;;;;;;;;5105241;27;24478;-59
2022/01/15 14:46:02;;;;;;;7.80;4.40;;;;;;;;;;5117426;28;24962;-59
2022/01/15 14:48:27;;;;;;;9.80;4.00;;;;;;;;;;5122792;28;24420;-59
2022/01/15 14:50:52;;;;;;;6.95;4.10;;;;;;;;;;5116138;28;24470;-58
2022/01/15 14:53:17;;;;;;;10.63;4.32;;;;;;;;;;5115497;28;24500;-58